createdAt,value
2022-10-17T00:01:08.765Z,14.27
2022-10-17T00:03:38.668Z,14.12
2022-10-17T00:06:08.787Z,13.98
2022-10-17T00:08:38.301Z,13.95
2022-10-17T00:11:08.615Z,14.00
2022-10-17T00:13:36.400Z,14.02
2022-10-17T00:16:05.331Z,14.07
2022-10-17T00:18:33.099Z,13.99
2022-10-17T00:21:00.835Z,13.86
2022-10-17T00:23:30.464Z,13.81
2022-10-17T00:26:01.005Z,13.78
2022-10-17T00:28:28.983Z,13.80
2022-10-17T00:31:02.552Z,13.83
2022-10-17T00:33:31.131Z,13.87
2022-10-17T00:36:06.986Z,13.79
2022-10-17T00:38:36.926Z,13.81
2022-10-17T00:41:05.503Z,13.88
2022-10-17T00:43:52.079Z,13.92
2022-10-17T00:46:22.219Z,13.98
2022-10-17T00:48:52.952Z,13.99
2022-10-17T00:51:26.687Z,14.01
2022-10-17T00:53:54.518Z,13.97
2022-10-17T00:56:22.603Z,13.99
2022-10-17T00:58:50.574Z,13.94
2022-10-17T01:01:18.518Z,13.88
2022-10-17T01:03:46.462Z,13.77
2022-10-17T01:06:14.593Z,13.71
2022-10-17T01:08:42.665Z,13.73
2022-10-17T01:11:35.578Z,13.79
2022-10-17T01:14:14.627Z,13.81
2022-10-17T01:16:58.553Z,13.77
2022-10-17T01:20:08.139Z,13.79
2022-10-17T01:22:47.318Z,13.75
2022-10-17T01:25:14.951Z,13.69
2022-10-17T01:28:09.577Z,13.61
2022-10-17T01:31:09.379Z,13.52
2022-10-17T01:33:47.070Z,13.60
2022-10-17T01:36:43.904Z,13.70
2022-10-17T01:39:15.243Z,13.71
2022-10-17T01:41:49.570Z,13.68
2022-10-17T01:44:37.565Z,13.70
2022-10-17T01:47:10.983Z,13.86
2022-10-17T01:49:43.269Z,13.95
2022-10-17T01:52:20.768Z,13.97
2022-10-17T01:54:56.232Z,13.95
2022-10-17T01:57:33.128Z,13.93
2022-10-17T02:00:05.351Z,13.92
2022-10-17T02:02:43.743Z,13.86
2022-10-17T02:05:12.494Z,13.84
2022-10-17T02:07:42.067Z,13.91
2022-10-17T02:10:18.917Z,13.97
2022-10-17T02:13:02.135Z,13.88
2022-10-17T02:15:50.653Z,13.81
2022-10-17T02:18:39.870Z,13.89
2022-10-17T02:21:17.756Z,13.95
2022-10-17T02:23:54.810Z,13.92
2022-10-17T02:27:04.465Z,13.85
2022-10-17T02:29:38.787Z,13.77
2022-10-17T02:32:37.461Z,13.69
2022-10-17T02:35:09.214Z,13.68
2022-10-17T02:37:39.170Z,13.71
2022-10-17T02:40:08.745Z,13.77
2022-10-17T02:42:41.332Z,13.76
2022-10-17T02:45:10.502Z,13.64
2022-10-17T02:47:46.284Z,13.51
2022-10-17T02:50:14.521Z,13.46
2022-10-17T02:52:55.623Z,13.52
2022-10-17T02:55:31.180Z,13.57
2022-10-17T02:58:04.356Z,13.59
2022-10-17T03:00:33.175Z,13.59
2022-10-17T03:03:00.954Z,13.60
2022-10-17T03:05:30.040Z,13.62
2022-10-17T03:07:57.782Z,13.64
2022-10-17T03:10:25.890Z,13.66
2022-10-17T03:12:53.666Z,13.62
2022-10-17T03:15:21.802Z,13.52
2022-10-17T03:17:49.611Z,13.41
2022-10-17T03:20:17.779Z,13.29
2022-10-17T03:22:46.780Z,13.22
2022-10-17T03:25:14.646Z,13.21
2022-10-17T03:27:42.397Z,13.18
2022-10-17T03:30:10.593Z,13.14
2022-10-17T03:32:38.386Z,13.16
2022-10-17T03:35:07.699Z,13.29
2022-10-17T03:37:37.180Z,13.31
2022-10-17T03:40:06.371Z,13.27
2022-10-17T03:42:34.190Z,13.38
2022-10-17T03:45:02.067Z,13.45
2022-10-17T03:47:30.262Z,13.44
2022-10-17T03:49:58.474Z,13.33
2022-10-17T03:52:26.352Z,13.27
2022-10-17T03:54:54.831Z,13.28
2022-10-17T03:57:22.552Z,13.27
2022-10-17T03:59:52.422Z,13.32
2022-10-17T04:02:21.310Z,13.44
2022-10-17T04:04:50.154Z,13.54
2022-10-17T04:07:18.238Z,13.60
2022-10-17T04:09:46.358Z,13.55
2022-10-17T04:12:18.791Z,13.60
2022-10-17T04:14:46.582Z,13.66
2022-10-17T04:17:15.268Z,13.73
2022-10-17T04:19:43.163Z,13.77
2022-10-17T04:22:10.936Z,13.70
2022-10-17T04:24:39.499Z,13.58
2022-10-17T04:27:10.769Z,13.51
2022-10-17T04:29:41.911Z,13.46
2022-10-17T04:32:14.273Z,13.32
2022-10-17T04:35:00.892Z,13.17
2022-10-17T04:37:29.744Z,13.08
2022-10-17T04:39:57.756Z,13.02
2022-10-17T04:42:25.603Z,12.99
2022-10-17T04:44:54.089Z,12.99
2022-10-17T04:47:23.419Z,13.05
2022-10-17T04:49:51.386Z,13.14
2022-10-17T04:52:20.076Z,13.19
2022-10-17T04:54:51.530Z,13.28
2022-10-17T04:57:20.112Z,13.35
2022-10-17T04:59:54.889Z,13.43
2022-10-17T05:02:47.920Z,13.48
2022-10-17T05:05:15.966Z,13.52
2022-10-17T05:07:44.653Z,13.58
2022-10-17T05:10:19.480Z,13.60
2022-10-17T05:12:50.325Z,13.63
2022-10-17T05:15:19.116Z,13.65
2022-10-17T05:17:46.888Z,13.68
2022-10-17T05:20:15.166Z,13.62
2022-10-17T05:22:43.036Z,13.50
2022-10-17T05:25:12.033Z,13.33
2022-10-17T05:27:39.784Z,13.25
2022-10-17T05:30:08.718Z,13.32
2022-10-17T05:32:36.758Z,13.39
2022-10-17T05:35:05.590Z,13.49
2022-10-17T05:37:33.446Z,13.55
2022-10-17T05:40:03.254Z,13.60
2022-10-17T05:42:31.601Z,13.64
2022-10-17T05:45:01.822Z,13.69
2022-10-17T05:47:31.561Z,13.74
2022-10-17T05:50:00.054Z,13.77
2022-10-17T05:52:33.577Z,13.70
2022-10-17T05:55:19.543Z,13.65
2022-10-17T05:57:50.792Z,13.65
2022-10-17T06:00:19.370Z,13.71
2022-10-17T06:02:52.215Z,13.66
2022-10-17T06:05:20.762Z,13.64
2022-10-17T06:07:50.248Z,13.71
2022-10-17T06:10:19.038Z,13.84
2022-10-17T06:12:47.120Z,13.93
2022-10-17T06:15:16.322Z,14.01
2022-10-17T06:17:48.074Z,14.09
2022-10-17T06:20:15.871Z,14.17
2022-10-17T06:22:44.441Z,14.13
2022-10-17T06:25:17.838Z,14.10
2022-10-17T06:27:46.163Z,14.12
2022-10-17T06:30:14.194Z,14.16
2022-10-17T06:32:42.218Z,14.18
2022-10-17T06:35:09.923Z,14.28
2022-10-17T06:37:38.398Z,14.43
2022-10-17T06:40:12.245Z,14.54
2022-10-17T06:42:40.165Z,14.67
2022-10-17T06:45:28.128Z,14.82
2022-10-17T06:48:08.674Z,14.93
2022-10-17T06:50:43.596Z,14.89
2022-10-17T06:53:14.744Z,14.84
2022-10-17T06:55:55.326Z,14.87
2022-10-17T06:58:50.912Z,14.98
2022-10-17T07:01:32.205Z,15.03
2022-10-17T07:04:01.289Z,15.07
2022-10-17T07:06:30.202Z,15.09
2022-10-17T07:09:02.908Z,15.17
2022-10-17T07:11:30.710Z,15.32
2022-10-17T07:13:58.971Z,15.39
2022-10-17T07:16:27.423Z,15.47
2022-10-17T07:19:02.558Z,15.64
2022-10-17T07:21:38.203Z,15.76
2022-10-17T07:24:08.468Z,15.83
2022-10-17T07:26:36.302Z,15.88
2022-10-17T07:29:06.508Z,15.91
2022-10-17T07:31:54.630Z,15.98
2022-10-17T07:34:27.446Z,16.01
2022-10-17T07:36:55.297Z,16.09
2022-10-17T07:39:23.683Z,16.20
2022-10-17T07:41:51.437Z,16.24
2022-10-17T07:44:19.683Z,16.30
2022-10-17T07:46:50.594Z,16.41
2022-10-17T07:49:19.148Z,16.50
2022-10-17T07:51:47.987Z,16.55
2022-10-17T07:54:15.816Z,16.61
2022-10-17T07:56:43.803Z,16.71
2022-10-17T07:59:11.549Z,16.85
2022-10-17T08:01:39.239Z,16.96
2022-10-17T08:04:07.006Z,17.06
2022-10-17T08:06:34.699Z,17.15
2022-10-17T08:09:02.914Z,17.26
2022-10-17T08:11:30.606Z,17.31
2022-10-17T08:13:58.295Z,17.36
2022-10-17T08:16:26.010Z,17.45
2022-10-17T08:18:54.142Z,17.52
2022-10-17T08:21:22.287Z,17.65
2022-10-17T08:23:49.962Z,17.76
2022-10-17T08:26:20.025Z,17.81
2022-10-17T08:28:48.540Z,17.86
2022-10-17T08:31:19.052Z,17.93
2022-10-17T08:33:48.214Z,17.99
2022-10-17T08:36:18.541Z,18.01
2022-10-17T08:38:50.346Z,18.10
2022-10-17T08:41:42.285Z,18.23
2022-10-17T08:44:47.730Z,18.36
2022-10-17T08:47:30.048Z,18.50
2022-10-17T08:50:02.310Z,18.57
2022-10-17T08:52:53.459Z,18.65
2022-10-17T08:55:37.823Z,18.75
2022-10-17T08:58:27.733Z,18.82
2022-10-17T09:01:07.958Z,18.90
2022-10-17T09:03:53.465Z,18.97
2022-10-17T09:06:35.166Z,19.04
2022-10-17T09:09:38.639Z,19.09
2022-10-17T09:12:16.996Z,19.17
2022-10-17T09:15:11.840Z,19.25
2022-10-17T09:18:03.530Z,19.91
2022-10-17T09:20:36.781Z,20.81
2022-10-17T09:23:14.284Z,21.83
2022-10-17T09:25:45.884Z,23.06
2022-10-17T09:28:26.182Z,23.91
2022-10-17T09:31:03.944Z,23.91
2022-10-17T09:33:53.915Z,24.34
2022-10-17T09:36:30.028Z,24.37
2022-10-17T09:39:17.906Z,24.31
2022-10-17T09:41:53.291Z,24.29
2022-10-17T09:44:42.503Z,24.18
2022-10-17T09:47:28.489Z,24.34
2022-10-17T09:49:57.291Z,24.27
2022-10-17T09:52:39.768Z,23.98
2022-10-17T09:55:20.523Z,24.16
2022-10-17T09:57:59.967Z,24.36
2022-10-17T10:00:46.916Z,23.90
2022-10-17T10:03:24.193Z,23.55
2022-10-17T10:06:02.905Z,23.19
2022-10-17T10:08:52.847Z,22.80
2022-10-17T10:11:25.938Z,22.86
2022-10-17T10:13:53.629Z,23.63
2022-10-17T10:16:21.383Z,24.68
2022-10-17T10:18:51.169Z,25.39
2022-10-17T10:21:22.255Z,24.99
2022-10-17T10:24:13.817Z,24.43
2022-10-17T10:26:49.004Z,24.00
2022-10-17T10:29:32.454Z,23.59
2022-10-17T10:32:19.470Z,23.15
2022-10-17T10:34:53.033Z,22.79
2022-10-17T10:37:28.976Z,22.51
2022-10-17T10:40:03.446Z,22.28
2022-10-17T10:42:38.679Z,22.12
2022-10-17T10:45:47.410Z,21.96
2022-10-17T10:48:27.234Z,21.78
2022-10-17T10:50:58.041Z,21.62
2022-10-17T10:53:49.968Z,21.53
2022-10-17T10:56:41.670Z,21.44
2022-10-17T10:59:09.313Z,21.36
2022-10-17T11:01:58.594Z,21.32
2022-10-17T11:04:29.634Z,21.30
2022-10-17T11:07:26.049Z,21.24
2022-10-17T11:10:16.804Z,21.14
2022-10-17T11:12:54.958Z,21.13
2022-10-17T11:15:35.841Z,21.12
2022-10-17T11:18:22.533Z,21.12
2022-10-17T11:20:59.067Z,21.10
2022-10-17T11:24:05.652Z,21.07
2022-10-17T11:26:45.494Z,20.98
2022-10-17T11:29:14.003Z,20.90
2022-10-17T11:31:52.867Z,20.83
2022-10-17T11:34:29.678Z,20.83
2022-10-17T11:37:03.986Z,20.80
2022-10-17T11:40:00.236Z,20.74
2022-10-17T11:42:33.176Z,20.68
2022-10-17T11:45:08.544Z,20.65
2022-10-17T11:48:21.521Z,20.65
2022-10-17T11:54:08.348Z,20.72
2022-10-17T11:56:42.741Z,20.82
2022-10-17T11:59:10.817Z,20.89
2022-10-17T12:01:46.686Z,20.90
2022-10-17T12:04:49.594Z,20.91
2022-10-17T12:07:37.842Z,20.91
2022-10-17T12:10:38.089Z,20.96
2022-10-17T12:13:28.615Z,21.06
2022-10-17T12:15:58.412Z,21.13
2022-10-17T12:18:29.410Z,21.17
2022-10-17T12:21:01.197Z,21.23
2022-10-17T12:23:30.929Z,21.26
2022-10-17T12:26:04.895Z,21.28
2022-10-17T12:28:43.292Z,21.33
2022-10-17T12:31:18.243Z,21.32
2022-10-17T12:33:46.204Z,21.26
2022-10-17T12:36:17.316Z,21.20
2022-10-17T12:38:49.928Z,21.17
2022-10-17T12:41:38.014Z,21.14
2022-10-17T12:44:26.950Z,21.11
2022-10-17T12:47:08.649Z,21.12
2022-10-17T12:49:47.876Z,21.08
2022-10-17T12:52:35.402Z,21.03
2022-10-17T12:55:18.353Z,20.96
2022-10-17T12:58:18.602Z,20.91
2022-10-17T13:01:22.724Z,20.87
2022-10-17T13:03:47.762Z,20.86
2022-10-17T13:06:21.912Z,20.83
2022-10-17T13:09:04.169Z,20.79
2022-10-17T13:11:36.297Z,20.76
2022-10-17T13:14:12.776Z,20.74
2022-10-17T13:16:51.986Z,20.72
2022-10-17T13:19:27.130Z,20.72
2022-10-17T13:22:06.744Z,20.72
2022-10-17T13:24:40.932Z,20.71
2022-10-17T13:27:28.594Z,20.68
2022-10-17T13:29:59.460Z,20.66
2022-10-17T13:32:36.420Z,20.66
2022-10-17T13:35:13.928Z,20.65
2022-10-17T13:37:44.268Z,20.65
2022-10-17T13:40:49.033Z,20.65
2022-10-17T13:43:22.056Z,20.65
2022-10-17T13:45:52.484Z,20.65
2022-10-17T13:48:32.234Z,20.66
2022-10-17T13:51:05.164Z,20.64
2022-10-17T13:53:39.858Z,20.64
2022-10-17T13:56:27.344Z,20.60
2022-10-17T13:58:59.830Z,20.60
2022-10-17T14:01:29.394Z,20.62
2022-10-17T14:04:08.384Z,20.63
2022-10-17T14:06:46.387Z,20.65
2022-10-17T14:09:25.550Z,20.65
2022-10-17T14:12:13.109Z,20.65
2022-10-17T14:15:09.328Z,20.63
2022-10-17T14:17:36.086Z,20.61
2022-10-17T14:23:21.084Z,20.59
2022-10-17T14:25:41.065Z,20.60
2022-10-17T14:28:15.857Z,20.59
2022-10-17T14:31:01.688Z,20.60
2022-10-17T14:33:31.410Z,20.60
2022-10-17T14:36:01.562Z,20.56
2022-10-17T14:38:30.477Z,20.53
2022-10-17T14:41:37.772Z,20.50
2022-10-17T14:44:08.691Z,20.46
2022-10-17T14:46:37.754Z,20.42
2022-10-17T14:49:21.731Z,20.41
2022-10-17T14:52:18.607Z,20.40
2022-10-17T14:54:49.108Z,20.38
2022-10-17T14:57:25.154Z,20.36
2022-10-17T14:59:55.868Z,20.37
2022-10-17T15:02:30.136Z,20.36
2022-10-17T15:04:58.280Z,20.32
2022-10-17T15:07:26.048Z,20.28
2022-10-17T15:09:54.284Z,20.25
2022-10-17T15:12:28.374Z,20.21
2022-10-17T15:14:56.462Z,20.21
2022-10-17T15:17:34.595Z,20.18
2022-10-17T15:20:02.491Z,20.10
2022-10-17T15:22:31.616Z,20.02
2022-10-17T15:24:59.769Z,20.01
2022-10-17T15:27:29.609Z,20.00
2022-10-17T15:29:58.275Z,20.00
2022-10-17T15:32:26.013Z,19.97
2022-10-17T15:34:53.803Z,19.93
2022-10-17T15:37:25.803Z,19.89
2022-10-17T15:39:55.110Z,19.84
2022-10-17T15:42:28.355Z,19.77
2022-10-17T15:44:57.821Z,19.70
2022-10-17T15:47:31.300Z,19.63
2022-10-17T15:50:00.489Z,19.59
2022-10-17T15:52:28.764Z,19.56
2022-10-17T15:54:58.516Z,19.49
2022-10-17T15:57:31.683Z,19.44
2022-10-17T16:00:00.487Z,19.38
2022-10-17T16:02:28.379Z,19.29
2022-10-17T16:04:56.202Z,19.20
2022-10-17T16:07:23.906Z,19.17
2022-10-17T16:09:51.944Z,19.14
2022-10-17T16:12:28.151Z,19.09
2022-10-17T16:14:56.709Z,19.06
2022-10-17T16:17:24.422Z,18.99
2022-10-17T16:19:52.186Z,18.93
2022-10-17T16:22:32.709Z,18.91
2022-10-17T16:25:07.881Z,18.88
2022-10-17T16:27:39.482Z,18.81
2022-10-17T16:30:08.306Z,18.76
2022-10-17T16:32:36.121Z,18.70
2022-10-17T16:35:05.243Z,18.62
2022-10-17T16:37:33.038Z,18.56
2022-10-17T16:40:00.878Z,18.52
2022-10-17T16:42:28.812Z,18.52
2022-10-17T16:44:57.107Z,18.52
2022-10-17T16:47:24.848Z,18.47
2022-10-17T16:49:52.602Z,18.46
2022-10-17T16:52:20.342Z,18.41
2022-10-17T16:54:48.091Z,18.29
2022-10-17T16:57:15.881Z,18.25
2022-10-17T16:59:43.651Z,18.28
2022-10-17T17:02:12.088Z,18.28
2022-10-17T17:04:40.144Z,18.25
2022-10-17T17:07:08.090Z,18.17
2022-10-17T17:09:36.094Z,18.13
2022-10-17T17:12:03.926Z,18.07
2022-10-17T17:14:31.898Z,18.00
2022-10-17T17:16:59.608Z,18.00
2022-10-17T17:19:27.438Z,17.99
2022-10-17T17:21:55.704Z,17.99
2022-10-17T17:24:24.203Z,18.01
2022-10-17T17:26:53.827Z,18.00
2022-10-17T17:29:22.963Z,18.02
2022-10-17T17:31:51.294Z,17.92
2022-10-17T17:34:19.056Z,17.81
2022-10-17T17:36:46.848Z,17.77
2022-10-17T17:39:16.071Z,17.77
2022-10-17T17:41:45.883Z,17.73
2022-10-17T17:44:16.724Z,17.68
2022-10-17T17:46:45.426Z,17.64
2022-10-17T17:49:13.603Z,17.56
2022-10-17T17:51:41.952Z,17.43
2022-10-17T17:54:12.778Z,17.36
2022-10-17T17:56:40.655Z,17.34
2022-10-17T17:59:11.377Z,17.24
2022-10-17T18:01:39.686Z,17.15
2022-10-17T18:04:09.110Z,17.10
2022-10-17T18:06:38.160Z,17.04
2022-10-17T18:09:07.100Z,17.04
2022-10-17T18:11:35.800Z,17.05
2022-10-17T18:14:06.598Z,16.98
2022-10-17T18:16:37.028Z,16.88
2022-10-17T18:19:07.484Z,16.82
2022-10-17T18:21:36.675Z,16.78
2022-10-17T18:24:05.061Z,16.76
2022-10-17T18:26:33.900Z,16.77
2022-10-17T18:29:01.974Z,16.76
2022-10-17T18:31:32.390Z,16.74
2022-10-17T18:34:00.417Z,16.70
2022-10-17T18:36:32.538Z,16.70
2022-10-17T18:39:01.986Z,16.76
2022-10-17T18:41:30.097Z,16.80
2022-10-17T18:43:58.190Z,16.79
2022-10-17T18:46:40.211Z,16.82
2022-10-17T18:49:14.136Z,16.79
2022-10-17T18:51:42.682Z,16.77
2022-10-17T18:54:20.547Z,16.75
2022-10-17T18:56:52.901Z,16.71
2022-10-17T18:59:21.389Z,16.69
2022-10-17T19:01:49.153Z,16.66
2022-10-17T19:04:17.111Z,16.64
2022-10-17T19:06:44.917Z,16.66
2022-10-17T19:09:13.716Z,16.66
2022-10-17T19:11:42.275Z,16.70
2022-10-17T19:14:14.712Z,16.72
2022-10-17T19:16:46.562Z,16.76
2022-10-17T19:19:23.693Z,16.79
2022-10-17T19:21:51.565Z,16.80
2022-10-17T19:24:22.081Z,16.72
2022-10-17T19:26:53.648Z,16.61
2022-10-17T19:29:23.351Z,16.56
2022-10-17T19:31:51.554Z,16.58
2022-10-17T19:34:19.926Z,16.55
2022-10-17T19:36:47.819Z,16.46
2022-10-17T19:39:18.329Z,16.40
2022-10-17T19:41:48.035Z,16.35
2022-10-17T19:44:16.616Z,16.28
2022-10-17T19:46:46.878Z,16.29
2022-10-17T19:49:15.343Z,16.35
2022-10-17T19:51:43.105Z,16.29
2022-10-17T19:54:11.552Z,16.19
2022-10-17T19:56:40.389Z,16.13
2022-10-17T19:59:08.659Z,16.11
2022-10-17T20:01:41.614Z,16.11
2022-10-17T20:04:11.049Z,16.12
2022-10-17T20:06:40.244Z,16.08
2022-10-17T20:09:12.382Z,16.05
2022-10-17T20:11:43.537Z,16.07
2022-10-17T20:14:11.259Z,16.14
2022-10-17T20:16:39.013Z,16.16
2022-10-17T20:19:09.924Z,16.13
2022-10-17T20:21:39.725Z,16.07
2022-10-17T20:24:12.077Z,16.01
2022-10-17T20:26:41.819Z,15.93
2022-10-17T20:29:21.001Z,15.88
2022-10-17T20:31:49.362Z,15.88
2022-10-17T20:34:20.149Z,15.82
2022-10-17T20:36:49.203Z,15.77
2022-10-17T20:39:19.411Z,15.71
2022-10-17T20:41:48.322Z,15.67
2022-10-17T20:44:16.065Z,15.65
2022-10-17T20:46:57.598Z,15.61
2022-10-17T20:49:30.454Z,15.57
2022-10-17T20:51:59.146Z,15.52
2022-10-17T20:54:28.462Z,15.49
2022-10-17T20:56:59.774Z,15.46
2022-10-17T20:59:31.152Z,15.43
2022-10-17T21:01:59.507Z,15.39
2022-10-17T21:07:17.025Z,15.32
2022-10-17T21:09:46.390Z,15.31
2022-10-17T21:12:21.640Z,15.31
2022-10-17T21:14:59.721Z,15.30
2022-10-17T21:17:28.312Z,15.29
2022-10-17T21:19:56.693Z,15.25
2022-10-17T21:22:24.665Z,15.22
2022-10-17T21:24:52.397Z,15.19
2022-10-17T21:27:20.138Z,15.19
2022-10-17T21:29:48.687Z,15.15
2022-10-17T21:32:31.825Z,15.11
2022-10-17T21:35:04.887Z,15.04
2022-10-17T21:37:32.609Z,14.99
2022-10-17T21:40:00.310Z,14.91
2022-10-17T21:42:28.973Z,14.87
2022-10-17T21:44:57.099Z,14.84
2022-10-17T21:47:27.657Z,14.80
2022-10-17T21:49:56.215Z,14.76
2022-10-17T21:52:23.985Z,14.72
2022-10-17T21:54:51.963Z,14.73
2022-10-17T21:57:19.656Z,14.70
2022-10-17T21:59:47.423Z,14.69
2022-10-17T22:02:16.444Z,14.72
2022-10-17T22:04:44.157Z,14.75
2022-10-17T22:07:11.927Z,14.75
2022-10-17T22:09:39.638Z,14.71
2022-10-17T22:12:07.468Z,14.79
2022-10-17T22:14:35.234Z,14.81
2022-10-17T22:17:02.990Z,14.75
2022-10-17T22:19:30.874Z,14.74
2022-10-17T22:21:58.628Z,14.78
2022-10-17T22:24:26.414Z,14.91
2022-10-17T22:26:54.325Z,14.99
2022-10-17T22:29:22.087Z,15.04
2022-10-17T22:31:50.034Z,15.08
2022-10-17T22:34:18.813Z,15.09
2022-10-17T22:36:49.047Z,14.89
2022-10-17T22:39:17.015Z,14.83
2022-10-17T22:41:44.740Z,14.72
2022-10-17T22:44:12.459Z,14.67
2022-10-17T22:46:40.423Z,14.56
2022-10-17T22:49:08.600Z,14.43
2022-10-17T22:51:36.379Z,14.34
2022-10-17T22:54:04.284Z,14.35
2022-10-17T22:56:32.115Z,14.36
2022-10-17T22:58:59.869Z,14.37
2022-10-17T23:01:27.728Z,14.35
2022-10-17T23:03:55.624Z,14.32
2022-10-17T23:06:23.804Z,14.31
2022-10-17T23:08:52.382Z,14.31
2022-10-17T23:11:21.009Z,14.34
2022-10-17T23:13:49.257Z,14.38
2022-10-17T23:16:17.332Z,14.39
2022-10-17T23:18:45.211Z,14.41
2022-10-17T23:21:13.096Z,14.34
2022-10-17T23:23:40.845Z,14.28
2022-10-17T23:26:12.834Z,14.26
2022-10-17T23:28:41.856Z,14.27
2022-10-17T23:31:12.421Z,14.26
2022-10-17T23:33:41.511Z,14.28
2022-10-17T23:36:11.562Z,14.31
2022-10-17T23:38:40.664Z,14.27
2022-10-17T23:41:09.048Z,14.27
2022-10-17T23:43:37.831Z,14.21
2022-10-17T23:46:06.669Z,14.18
2022-10-17T23:48:34.885Z,14.22
2022-10-17T23:51:03.147Z,14.24
2022-10-17T23:53:31.399Z,14.23
2022-10-17T23:55:59.112Z,14.19
2022-10-17T23:58:26.902Z,14.22
